Time;durP1;ratioP1;P1;durP2;ratioP2;P2;SDS_P1;SDS_P2;PMS_P1;PMS_P2;Temp;Humidity;BMP_temperature;BMP_pressure;BME280_temperature;BME280_humidity;BME280_pressure;Samples;Min_cycle;Max_cycle;Signal;HPM_P1;HPM_P2
2023/07/13 00:01:51;;;;;;;9.57;6.38;;;26.70;68.80;;;;;;6189070;28;80917;-65
2023/07/13 00:04:52;;;;;;;8.35;6.45;;;26.70;68.70;;;;;;6202354;27;82107;-62
2023/07/13 00:07:52;;;;;;;9.63;6.22;;;26.80;68.60;;;;;;6188972;28;80493;-61
2023/07/13 00:10:56;;;;;;;8.85;6.70;;;26.80;68.40;;;;;;6202113;27;80455;-62
2023/07/13 00:13:56;;;;;;;10.63;6.20;;;26.80;68.30;;;;;;6198345;28;80669;-60
2023/07/13 00:16:57;;;;;;;9.23;5.90;;;26.80;68.30;;;;;;6191016;27;80496;-62
2023/07/13 00:19:58;;;;;;;10.60;6.25;;;26.80;68.30;;;;;;6191042;27;80294;-59
2023/07/13 00:22:58;;;;;;;9.63;5.85;;;26.80;68.60;;;;;;6202895;27;80472;-61
2023/07/13 00:25:59;;;;;;;9.68;6.13;;;26.80;68.80;;;;;;6202112;27;82452;-61
2023/07/13 00:28:59;;;;;;;8.27;5.88;;;26.80;69.10;;;;;;6196982;27;82081;-61
2023/07/13 00:32:00;;;;;;;7.30;6.07;;;26.80;69.30;;;;;;6193115;28;83429;-63
2023/07/13 00:35:00;;;;;;;7.03;5.28;;;26.80;69.60;;;;;;6214476;28;81190;-61
2023/07/13 00:38:01;;;;;;;10.30;6.35;;;26.80;69.90;;;;;;6227011;27;83199;-63
2023/07/13 00:41:03;;;;;;;6.88;5.13;;;26.80;70.20;;;;;;6228100;27;80663;-61
2023/07/13 00:44:04;;;;;;;8.02;4.90;;;26.80;70.30;;;;;;6220767;28;90279;-59
2023/07/13 00:47:06;;;;;;;5.78;4.82;;;26.80;70.40;;;;;;6227036;27;80670;-59
2023/07/13 00:50:06;;;;;;;9.77;5.85;;;26.80;70.50;;;;;;6223140;27;81218;-60
2023/07/13 00:53:07;;;;;;;10.02;5.03;;;26.80;71.20;;;;;;6188727;28;80353;-59
2023/07/13 00:56:07;;;;;;;7.97;5.50;;;26.80;71.20;;;;;;6178409;28;80835;-60
2023/07/13 00:59:08;;;;;;;8.95;5.43;;;26.80;71.30;;;;;;6178508;28;83302;-59
2023/07/13 01:02:08;;;;;;;8.57;5.72;;;26.70;71.50;;;;;;6178476;28;81153;-60
2023/07/13 01:05:09;;;;;;;8.75;5.60;;;26.70;71.90;;;;;;6180573;28;80520;-60
2023/07/13 01:08:09;;;;;;;7.40;5.55;;;26.70;72.50;;;;;;6192247;28;82291;-59
2023/07/13 01:11:10;;;;;;;7.82;5.45;;;26.60;73.20;;;;;;6191651;27;82280;-58
2023/07/13 01:14:11;;;;;;;9.05;5.78;;;26.60;73.60;;;;;;6185439;28;80561;-60
2023/07/13 01:17:11;;;;;;;9.13;5.22;;;26.50;74.10;;;;;;6175427;28;80682;-61
2023/07/13 01:20:12;;;;;;;11.27;5.05;;;26.50;74.70;;;;;;6187814;28;80734;-61
2023/07/13 01:23:13;;;;;;;10.02;5.47;;;26.30;75.40;;;;;;6197317;28;80383;-60
2023/07/13 01:26:14;;;;;;;7.90;5.38;;;26.30;76.00;;;;;;6196560;27;81009;-60
2023/07/13 01:29:14;;;;;;;8.98;5.63;;;26.20;76.60;;;;;;6188491;28;82378;-60
2023/07/13 01:32:15;;;;;;;8.98;5.50;;;26.10;77.10;;;;;;6188077;28;83117;-60
2023/07/13 01:35:16;;;;;;;8.85;5.30;;;26.00;77.20;;;;;;6194789;28;80154;-63
2023/07/13 01:38:17;;;;;;;9.23;5.13;;;26.10;77.10;;;;;;6224199;28;80484;-63
2023/07/13 01:41:17;;;;;;;9.05;5.55;;;26.10;76.70;;;;;;6225858;27;80214;-63
2023/07/13 01:44:18;;;;;;;9.73;5.72;;;26.10;76.50;;;;;;6222516;27;83416;-64
2023/07/13 01:47:19;;;;;;;9.85;5.20;;;26.10;76.20;;;;;;6223486;27;80574;-66
2023/07/13 01:50:19;;;;;;;9.60;5.32;;;26.20;75.70;;;;;;6193277;28;81535;-65
2023/07/13 01:53:20;;;;;;;11.40;6.20;;;26.20;75.90;;;;;;6180298;28;80737;-62
2023/07/13 01:56:21;;;;;;;8.73;5.22;;;26.20;77.00;;;;;;6194655;28;83206;-61
2023/07/13 01:59:21;;;;;;;7.78;4.30;;;26.10;77.30;;;;;;6175039;28;83247;-64
2023/07/13 02:02:22;;;;;;;8.77;5.32;;;26.10;77.60;;;;;;6197566;28;80483;-62
2023/07/13 02:05:22;;;;;;;9.52;4.78;;;26.00;77.90;;;;;;6196823;27;81079;-62
2023/07/13 02:08:23;;;;;;;11.93;5.38;;;25.90;79.10;;;;;;6198695;28;80542;-61
2023/07/13 02:11:24;;;;;;;14.55;5.28;;;25.80;78.80;;;;;;6198126;28;81504;-61
2023/07/13 02:14:25;;;;;;;8.85;5.78;;;25.50;80.90;;;;;;6196558;28;81261;-61
2023/07/13 02:17:25;;;;;;;11.10;5.72;;;25.40;81.60;;;;;;6192405;28;81059;-60
2023/07/13 02:20:26;;;;;;;11.00;5.15;;;25.20;82.90;;;;;;6175547;28;80587;-60
2023/07/13 02:23:27;;;;;;;9.35;4.75;;;25.00;84.80;;;;;;6200701;27;80905;-62
2023/07/13 02:26:27;;;;;;;8.73;4.93;;;24.90;85.60;;;;;;6125144;28;82007;-61
2023/07/13 02:29:28;;;;;;;6.45;5.22;;;25.00;84.50;;;;;;6081107;28;82001;-61
2023/07/13 02:32:28;;;;;;;9.05;4.68;;;25.10;83.90;;;;;;5815247;28;88442;-61
2023/07/13 02:35:29;;;;;;;8.15;5.03;;;25.20;83.00;;;;;;6214357;28;82308;-61
2023/07/13 02:38:29;;;;;;;11.57;5.43;;;25.20;82.60;;;;;;5911703;27;83129;-62
2023/07/13 02:41:30;;;;;;;10.38;5.28;;;25.30;82.20;;;;;;5791704;28;83203;-64
2023/07/13 02:44:31;;;;;;;8.27;4.90;;;25.30;82.00;;;;;;6097397;27;85558;-64
2023/07/13 02:47:31;;;;;;;5.80;4.22;;;25.30;82.20;;;;;;6148377;28;81626;-63
2023/07/13 02:50:31;;;;;;;10.93;4.90;;;24.80;84.10;;;;;;6187033;28;80168;-62
2023/07/13 02:53:32;;;;;;;5.15;4.05;;;24.60;85.70;;;;;;6175453;28;80873;-62
2023/07/13 02:56:33;;;;;;;6.88;4.70;;;24.80;85.30;;;;;;6176146;28;80438;-61
2023/07/13 02:59:33;;;;;;;6.78;5.10;;;25.10;83.70;;;;;;6198757;28;83142;-62
2023/07/13 03:02:34;;;;;;;6.15;4.20;;;25.20;82.80;;;;;;6184932;28;81160;-63
2023/07/13 03:05:35;;;;;;;9.75;4.22;;;25.30;81.80;;;;;;6197510;28;83155;-62
2023/07/13 03:08:35;;;;;;;6.10;4.50;;;25.50;80.90;;;;;;6196878;28;82919;-64
2023/07/13 03:11:36;;;;;;;7.63;4.90;;;25.60;80.40;;;;;;6197118;28;83660;-62
2023/07/13 03:14:50;;;;;;;7.22;4.80;;;25.60;79.60;;;;;;6196448;28;83288;-62
2023/07/13 03:17:50;;;;;;;7.35;4.35;;;25.50;80.00;;;;;;6199086;28;82370;-62
2023/07/13 03:20:51;;;;;;;6.05;4.72;;;25.40;80.10;;;;;;6193162;28;84143;-60
2023/07/13 03:23:52;;;;;;;10.32;4.88;;;25.50;80.00;;;;;;6190099;28;83570;-63
2023/07/13 03:26:52;;;;;;;6.07;4.07;;;25.60;79.50;;;;;;6199604;28;83169;-63
2023/07/13 03:29:53;;;;;;;5.53;3.88;;;25.60;79.00;;;;;;6201993;28;83413;-63
2023/07/13 03:32:54;;;;;;;6.43;4.10;;;25.70;78.50;;;;;;6201775;28;83235;-62
2023/07/13 03:35:55;;;;;;;6.53;4.03;;;25.50;78.70;;;;;;6222568;28;80444;-64
2023/07/13 03:38:55;;;;;;;5.03;4.00;;;25.30;79.00;;;;;;6225753;28;83459;-64
2023/07/13 03:41:59;;;;;;;6.55;3.90;;;25.50;78.80;;;;;;6220646;28;83163;-63
2023/07/13 03:45:01;;;;;;;7.97;4.10;;;25.60;78.30;;;;;;6205355;28;83595;-62
2023/07/13 03:48:02;;;;;;;6.88;3.53;;;25.70;77.70;;;;;;6224570;28;82285;-61
2023/07/13 03:51:02;;;;;;;7.13;4.28;;;25.80;77.50;;;;;;6214967;28;82159;-61
2023/07/13 03:54:03;;;;;;;6.15;3.88;;;25.90;77.40;;;;;;6200603;28;82605;-60
2023/07/13 03:57:04;;;;;;;7.00;4.40;;;25.90;76.80;;;;;;6193616;28;81659;-60
2023/07/13 04:00:07;;;;;;;7.55;4.00;;;26.00;76.80;;;;;;6202640;28;82272;-61
2023/07/13 04:03:16;;;;;;;6.05;4.00;;;25.90;77.40;;;;;;6202414;28;80158;-61
2023/07/13 04:06:20;;;;;;;9.00;4.43;;;25.90;77.40;;;;;;6222495;28;81809;-62
2023/07/13 04:09:21;;;;;;;5.80;4.13;;;25.90;77.50;;;;;;6215554;28;81659;-65
2023/07/13 04:12:22;;;;;;;6.25;3.80;;;26.00;77.30;;;;;;6223201;27;80293;-62
2023/07/13 04:15:22;;;;;;;12.00;4.57;;;26.10;77.20;;;;;;6216414;28;82938;-64
2023/07/13 04:18:23;;;;;;;7.72;4.70;;;26.10;76.60;;;;;;6198395;28;80917;-64
2023/07/13 04:21:23;;;;;;;8.73;4.25;;;26.00;76.40;;;;;;6192235;27;81474;-61
2023/07/13 04:24:24;;;;;;;7.97;4.72;;;25.90;76.90;;;;;;6179386;28;80404;-62
2023/07/13 04:27:24;;;;;;;7.80;4.13;;;25.90;77.30;;;;;;6185746;28;81465;-62
2023/07/13 04:30:26;;;;;;;6.18;4.13;;;26.00;77.10;;;;;;6195000;27;83125;-65
2023/07/13 04:33:26;;;;;;;5.47;3.80;;;26.00;76.10;;;;;;6196365;28;81017;-61
2023/07/13 04:36:27;;;;;;;6.00;3.95;;;25.90;76.30;;;;;;6219166;28;80411;-61
2023/07/13 04:39:27;;;;;;;9.13;3.70;;;25.80;76.50;;;;;;6215087;27;81040;-61
2023/07/13 04:42:28;;;;;;;7.78;4.00;;;25.70;76.80;;;;;;6178362;28;80449;-61
2023/07/13 04:45:28;;;;;;;8.00;3.65;;;25.80;76.80;;;;;;6191944;28;80659;-58
2023/07/13 04:48:29;;;;;;;9.82;3.63;;;25.90;76.10;;;;;;6185937;27;80760;-58
2023/07/13 04:51:29;;;;;;;13.57;4.13;;;26.00;75.70;;;;;;6179894;28;80357;-59
2023/07/13 04:54:30;;;;;;;5.72;3.53;;;26.00;75.30;;;;;;6228885;28;87973;-61
2023/07/13 04:57:30;;;;;;;8.40;3.65;;;26.10;75.90;;;;;;6174405;28;84529;-63
2023/07/13 05:00:31;;;;;;;4.43;3.45;;;26.20;75.10;;;;;;6197355;28;80881;-63
2023/07/13 05:03:31;;;;;;;7.15;4.13;;;26.20;74.90;;;;;;6221171;27;80536;-64
2023/07/13 05:06:32;;;;;;;8.57;4.10;;;26.30;74.60;;;;;;6222917;27;80809;-67
2023/07/13 05:09:32;;;;;;;7.03;4.47;;;26.40;74.60;;;;;;6219579;27;80593;-63
2023/07/13 05:12:33;;;;;;;6.43;4.07;;;26.40;74.80;;;;;;6218408;27;80587;-67
2023/07/13 05:15:34;;;;;;;5.18;3.60;;;26.50;74.70;;;;;;6219290;28;80172;-66
2023/07/13 05:18:34;;;;;;;8.68;4.15;;;26.50;74.60;;;;;;6182786;28;80534;-60
2023/07/13 05:21:35;;;;;;;13.15;3.83;;;26.50;74.10;;;;;;6192729;28;85081;-63
2023/07/13 05:24:35;;;;;;;9.73;3.55;;;26.60;74.70;;;;;;6197077;27;81045;-62
2023/07/13 05:27:35;;;;;;;5.65;3.47;;;26.60;74.30;;;;;;6181894;27;83780;-63
2023/07/13 05:30:36;;;;;;;7.63;3.40;;;26.60;74.50;;;;;;6185000;28;80577;-58
2023/07/13 05:33:36;;;;;;;6.70;4.35;;;26.70;74.20;;;;;;6191575;27;82997;-60
2023/07/13 05:36:37;;;;;;;6.50;3.92;;;26.60;73.40;;;;;;6186241;27;81602;-58
2023/07/13 05:39:37;;;;;;;7.28;4.63;;;26.50;73.90;;;;;;6183504;28;81050;-60
2023/07/13 05:42:38;;;;;;;6.40;4.25;;;26.50;75.50;;;;;;6184229;27;81660;-59
2023/07/13 05:45:38;;;;;;;5.53;3.70;;;26.50;76.70;;;;;;6078156;28;82324;-61
2023/07/13 05:48:39;;;;;;;10.38;4.43;;;26.50;76.60;;;;;;6071909;27;82626;-60
2023/07/13 05:51:40;;;;;;;6.90;4.30;;;26.50;76.50;;;;;;6066770;27;81790;-57
2023/07/13 05:54:40;;;;;;;11.32;4.93;;;26.50;77.10;;;;;;6175354;27;83789;-55
2023/07/13 05:57:41;;;;;;;6.18;4.13;;;26.50;76.90;;;;;;6168613;27;84788;-54
2023/07/13 06:00:41;;;;;;;7.85;5.05;;;26.50;77.10;;;;;;6185483;27;81422;-56
2023/07/13 06:03:42;;;;;;;7.88;5.13;;;26.50;77.00;;;;;;6185830;28;81016;-56
2023/07/13 06:06:42;;;;;;;7.63;5.07;;;26.50;76.70;;;;;;6190756;28;83038;-57
2023/07/13 06:09:43;;;;;;;6.22;4.40;;;26.50;76.20;;;;;;6184951;28;81186;-57
2023/07/13 06:12:43;;;;;;;10.52;5.07;;;26.50;75.90;;;;;;6183537;28;80603;-56
2023/07/13 06:15:44;;;;;;;8.20;5.25;;;26.50;77.00;;;;;;6193615;28;81536;-54
2023/07/13 06:18:44;;;;;;;10.27;5.80;;;26.50;77.80;;;;;;6201299;28;81601;-51
2023/07/13 06:21:45;;;;;;;15.30;7.13;;;26.50;78.10;;;;;;6214225;28;81600;-55
2023/07/13 06:24:45;;;;;;;9.80;4.97;;;26.50;77.40;;;;;;6186648;28;80482;-56
2023/07/13 06:27:46;;;;;;;10.38;4.78;;;26.50;77.40;;;;;;6196311;27;81365;-56
2023/07/13 06:30:46;;;;;;;7.82;4.53;;;26.50;76.80;;;;;;6185761;28;81121;-59
2023/07/13 06:33:47;;;;;;;7.47;4.45;;;26.50;76.40;;;;;;6192600;28;80926;-58
2023/07/13 06:36:47;;;;;;;10.50;5.20;;;26.50;76.70;;;;;;6206479;28;82454;-57
2023/07/13 06:39:48;;;;;;;7.32;4.20;;;26.60;76.30;;;;;;6204723;28;83561;-58
2023/07/13 06:42:48;;;;;;;6.53;4.68;;;26.70;76.10;;;;;;6182643;28;80886;-56
2023/07/13 06:45:49;;;;;;;8.95;4.50;;;26.70;77.20;;;;;;6181329;28;82928;-69
2023/07/13 06:48:50;;;;;;;9.77;4.45;;;26.70;76.20;;;;;;6195194;28;87384;-66
2023/07/13 06:51:50;;;;;;;6.40;4.78;;;26.70;76.20;;;;;;6209173;28;81500;-63
2023/07/13 06:54:51;;;;;;;6.80;4.60;;;26.70;76.10;;;;;;6184705;28;83325;-64
2023/07/13 06:57:51;;;;;;;12.02;6.07;;;26.70;75.60;;;;;;6194834;28;80706;-67
2023/07/13 07:00:52;;;;;;;12.60;5.90;;;26.70;76.40;;;;;;6209481;27;80767;-66
2023/07/13 07:03:52;;;;;;;11.68;4.90;;;26.80;76.20;;;;;;6193311;28;80639;-66
2023/07/13 07:06:53;;;;;;;9.73;4.82;;;26.70;75.90;;;;;;6221671;27;80859;-64
2023/07/13 07:09:53;;;;;;;6.22;4.47;;;26.80;75.70;;;;;;6220620;27;80924;-68
2023/07/13 07:12:54;;;;;;;7.82;4.80;;;26.80;75.30;;;;;;6219494;27;82652;-65
2023/07/13 07:15:54;;;;;;;9.05;4.15;;;26.80;75.10;;;;;;6220557;27;80841;-65
2023/07/13 07:18:55;;;;;;;13.70;4.97;;;26.80;75.30;;;;;;6220800;27;80423;-65
2023/07/13 07:21:55;;;;;;;8.45;5.15;;;26.80;75.60;;;;;;6218862;27;82245;-68
2023/07/13 07:24:56;;;;;;;8.00;4.30;;;26.80;75.00;;;;;;6211124;28;81679;-64
2023/07/13 07:27:56;;;;;;;11.80;4.65;;;26.80;74.30;;;;;;6194776;28;83416;-66
2023/07/13 07:30:57;;;;;;;8.40;4.80;;;26.90;74.10;;;;;;6186629;28;80420;-67
2023/07/13 07:33:57;;;;;;;9.77;4.78;;;26.90;73.80;;;;;;6190658;27;80731;-64
2023/07/13 07:36:58;;;;;;;14.95;6.00;;;26.90;73.80;;;;;;6195183;28;81875;-63
2023/07/13 07:39:59;;;;;;;12.43;4.90;;;26.90;73.30;;;;;;6213501;27;83989;-64
2023/07/13 07:42:59;;;;;;;16.77;5.57;;;26.90;73.20;;;;;;6216533;27;81722;-65
2023/07/13 07:46:00;;;;;;;9.95;5.65;;;27.00;73.80;;;;;;6219148;27;83226;-65
2023/07/13 07:49:00;;;;;;;16.77;7.05;;;27.00;73.20;;;;;;6210588;28;80381;-65
2023/07/13 07:52:01;;;;;;;15.32;6.00;;;27.10;73.10;;;;;;6188632;28;80997;-65
2023/07/13 07:55:01;;;;;;;7.15;5.40;;;27.10;73.00;;;;;;6182170;28;83211;-67
2023/07/13 07:58:02;;;;;;;13.50;6.72;;;27.10;73.40;;;;;;6188302;27;80321;-65
2023/07/13 08:01:02;;;;;;;16.48;6.18;;;27.10;73.80;;;;;;6180237;28;82580;-62
2023/07/13 08:04:03;;;;;;;15.52;6.88;;;27.20;74.60;;;;;;6180046;28;80804;-61
2023/07/13 08:07:03;;;;;;;21.88;6.10;;;27.20;74.80;;;;;;6182944;28;87503;-61
2023/07/13 08:10:04;;;;;;;18.00;6.35;;;27.20;74.50;;;;;;6181415;28;81385;-63
2023/07/13 08:13:04;;;;;;;15.25;6.00;;;27.30;74.30;;;;;;6183728;27;80654;-62
2023/07/13 08:16:05;;;;;;;19.60;6.88;;;27.30;74.60;;;;;;6192070;28;81160;-62
2023/07/13 08:19:06;;;;;;;11.73;6.22;;;27.30;74.60;;;;;;6177890;28;81485;-62
2023/07/13 08:22:06;;;;;;;12.98;6.28;;;27.40;74.40;;;;;;6186458;27;80756;-62
2023/07/13 08:25:07;;;;;;;8.77;5.72;;;27.40;74.80;;;;;;6186053;28;80474;-60
2023/07/13 08:28:07;;;;;;;14.63;6.20;;;27.40;74.60;;;;;;6187115;28;80179;-57
2023/07/13 08:31:08;;;;;;;11.40;6.60;;;27.40;73.90;;;;;;6189383;28;80685;-56
2023/07/13 08:34:08;;;;;;;12.32;5.95;;;27.00;70.00;;;;;;6192257;28;80763;-59
2023/07/13 08:37:09;;;;;;;12.05;6.15;;;26.70;67.20;;;;;;6212556;27;80342;-56
2023/07/13 08:40:09;;;;;;;11.85;6.40;;;26.50;65.20;;;;;;6224459;27;80608;-57
2023/07/13 08:43:10;;;;;;;14.48;5.85;;;26.20;64.70;;;;;;6206829;28;80154;-56
2023/07/13 08:46:10;;;;;;;14.10;6.18;;;26.10;64.20;;;;;;6200170;27;82698;-58
2023/07/13 08:49:11;;;;;;;10.23;5.68;;;26.00;63.80;;;;;;6198476;27;80315;-57
2023/07/13 08:52:12;;;;;;;13.43;6.22;;;25.90;67.90;;;;;;6187490;28;80549;-57
2023/07/13 08:55:12;;;;;;;26.33;5.28;;;26.10;74.70;;;;;;6196955;27;83598;-65
2023/07/13 08:58:13;;;;;;;11.10;5.90;;;26.20;77.80;;;;;;6201710;27;80643;-58
2023/07/13 09:01:13;;;;;;;13.88;5.88;;;26.20;81.70;;;;;;6199110;28;80235;-60
2023/07/13 09:04:14;;;;;;;10.40;5.80;;;26.30;84.70;;;;;;6192737;28;81280;-58
2023/07/13 09:07:15;;;;;;;8.38;5.47;;;26.50;86.00;;;;;;6209869;28;81627;-59
2023/07/13 09:10:16;;;;;;;10.95;5.93;;;26.40;80.70;;;;;;6198604;27;81318;-58
2023/07/13 09:13:16;;;;;;;9.80;5.25;;;26.20;74.80;;;;;;6188650;28;80712;-58
2023/07/13 09:16:17;;;;;;;8.30;4.80;;;26.00;71.20;;;;;;6185734;28;82196;-59
2023/07/13 09:19:17;;;;;;;10.43;4.82;;;26.00;75.40;;;;;;6203324;28;80939;-56
2023/07/13 09:22:18;;;;;;;7.65;5.15;;;26.20;76.30;;;;;;6199611;27;80715;-58
2023/07/13 09:25:18;;;;;;;9.60;5.20;;;26.30;75.30;;;;;;6193030;27;80708;-58
2023/07/13 09:28:19;;;;;;;6.07;4.25;;;26.40;75.30;;;;;;6190003;27;80563;-59
2023/07/13 09:31:20;;;;;;;5.65;4.20;;;26.50;74.70;;;;;;6203026;28;80578;-58
2023/07/13 09:34:20;;;;;;;6.72;5.03;;;26.60;74.70;;;;;;6206027;28;85402;-58
2023/07/13 09:37:21;;;;;;;7.47;4.88;;;26.70;74.90;;;;;;6223395;27;81072;-59
2023/07/13 09:40:22;;;;;;;6.22;5.18;;;26.70;75.10;;;;;;6216630;28;80629;-58
2023/07/13 09:43:23;;;;;;;5.80;4.72;;;26.80;75.00;;;;;;6185277;28;81751;-57
2023/07/13 09:46:23;;;;;;;8.10;4.35;;;26.80;74.50;;;;;;6200817;28;80627;-57
2023/07/13 09:49:24;;;;;;;7.22;4.63;;;26.80;74.80;;;;;;6199278;27;80365;-59
2023/07/13 09:52:26;;;;;;;7.03;4.85;;;26.90;74.50;;;;;;6200199;28;80465;-59
2023/07/13 09:55:26;;;;;;;7.22;4.90;;;26.80;75.10;;;;;;6195611;27;80423;-58
2023/07/13 09:58:27;;;;;;;9.10;4.82;;;26.70;69.60;;;;;;6186653;28;81550;-59
2023/07/13 10:01:28;;;;;;;6.60;4.65;;;26.40;66.20;;;;;;6189773;27;81231;-59
2023/07/13 10:04:29;;;;;;;5.88;4.07;;;26.20;65.60;;;;;;6201361;27;82432;-59
2023/07/13 10:07:29;;;;;;;6.18;4.13;;;26.20;69.00;;;;;;6197939;27;80453;-58
2023/07/13 10:10:30;;;;;;;9.38;3.85;;;26.30;69.00;;;;;;6188524;28;80748;-58
2023/07/13 10:13:31;;;;;;;7.32;4.32;;;26.50;69.10;;;;;;6188744;28;81670;-54
2023/07/13 10:16:32;;;;;;;5.38;4.40;;;26.50;69.80;;;;;;6197057;27;81374;-53
2023/07/13 10:19:33;;;;;;;6.28;4.38;;;26.60;70.50;;;;;;6180650;28;80809;-57
2023/07/13 10:22:33;;;;;;;6.50;4.90;;;26.60;71.20;;;;;;6193935;28;80961;-58
2023/07/13 10:25:34;;;;;;;11.48;7.53;;;26.60;72.50;;;;;;6188558;28;80512;-58
2023/07/13 10:28:35;;;;;;;12.82;6.65;;;26.70;74.20;;;;;;6203375;27;80479;-60
2023/07/13 10:31:35;;;;;;;14.45;5.68;;;26.70;74.10;;;;;;6180917;28;80373;-60
2023/07/13 10:34:36;;;;;;;14.75;5.82;;;26.70;73.80;;;;;;6190116;28;80691;-59
2023/07/13 10:37:36;;;;;;;48.00;5.70;;;26.70;75.00;;;;;;6181393;28;80497;-60
2023/07/13 10:40:37;;;;;;;14.00;5.03;;;26.70;74.70;;;;;;6183574;28;80464;-59
2023/07/13 10:43:38;;;;;;;17.75;5.07;;;26.70;75.30;;;;;;6182161;28;80238;-56
2023/07/13 10:46:39;;;;;;;9.13;4.47;;;26.60;74.70;;;;;;6187805;28;80161;-59
2023/07/13 10:49:39;;;;;;;11.38;4.80;;;26.40;75.00;;;;;;6181919;28;80948;-59
2023/07/13 10:52:40;;;;;;;10.45;5.22;;;26.20;77.30;;;;;;6182951;28;86853;-58
2023/07/13 10:55:40;;;;;;;10.63;4.03;;;26.00;80.70;;;;;;6197329;27;82076;-59
2023/07/13 10:58:41;;;;;;;9.35;4.07;;;25.90;78.70;;;;;;6193689;28;80662;-60
2023/07/13 11:01:41;;;;;;;8.15;4.57;;;25.70;78.40;;;;;;6192587;27;80860;-62
2023/07/13 11:04:42;;;;;;;9.05;4.35;;;25.60;78.90;;;;;;6198526;28;80510;-60
2023/07/13 11:07:43;;;;;;;9.07;4.25;;;25.60;79.50;;;;;;6182772;28;83323;-61
2023/07/13 11:10:43;;;;;;;12.05;4.10;;;25.50;80.30;;;;;;6195270;28;80781;-60
2023/07/13 11:13:45;;;;;;;5.90;3.10;;;25.50;79.40;;;;;;6195009;27;84078;-63
2023/07/13 11:16:46;;;;;;;7.93;3.15;;;25.40;77.40;;;;;;6193456;28;82720;-63
2023/07/13 11:19:46;;;;;;;8.68;3.40;;;25.40;77.80;;;;;;6192402;28;80804;-62
2023/07/13 11:22:50;;;;;;;4.78;2.75;;;25.50;78.50;;;;;;6198352;27;80887;-58
2023/07/13 11:25:51;;;;;;;9.52;2.97;;;25.60;76.70;;;;;;6208477;28;80627;-57
2023/07/13 11:28:51;;;;;;;4.82;2.70;;;25.50;77.40;;;;;;6217290;28;80722;-60
2023/07/13 11:31:52;;;;;;;12.45;4.03;;;25.60;77.00;;;;;;6219420;28;81590;-59
2023/07/13 11:34:52;;;;;;;6.10;3.38;;;25.30;78.30;;;;;;6205186;28;82080;-58
2023/07/13 11:37:53;;;;;;;12.05;6.55;;;24.80;80.50;;;;;;6213390;28;81581;-59
2023/07/13 11:40:53;;;;;;;10.40;3.55;;;24.00;84.60;;;;;;6211671;28;80750;-62
2023/07/13 11:43:54;;;;;;;6.13;3.40;;;23.50;87.90;;;;;;6206131;28;84726;-59
2023/07/13 11:46:54;;;;;;;12.80;3.30;;;23.70;89.00;;;;;;6211229;28;80353;-58
2023/07/13 11:49:59;;;;;;;11.95;3.83;;;24.30;86.70;;;;;;6192686;28;87927;-58
2023/07/13 11:52:59;;;;;;;6.43;3.15;;;24.70;85.30;;;;;;6199137;28;81151;-57
2023/07/13 11:56:00;;;;;;;4.78;3.30;;;25.00;84.20;;;;;;6210938;28;80703;-59
2023/07/13 11:59:01;;;;;;;9.27;3.05;;;25.30;84.20;;;;;;6217147;28;81611;-61
2023/07/13 12:02:03;;;;;;;5.05;2.75;;;25.40;83.80;;;;;;6206892;28;81024;-61
2023/07/13 12:05:04;;;;;;;6.57;3.08;;;25.60;82.60;;;;;;6206061;27;80924;-60
2023/07/13 12:08:04;;;;;;;12.02;2.70;;;25.70;81.50;;;;;;6214154;28;82427;-59
2023/07/13 12:11:05;;;;;;;7.00;2.70;;;25.80;81.50;;;;;;6225229;27;80848;-60
2023/07/13 12:14:05;;;;;;;5.13;2.30;;;25.90;80.90;;;;;;6225548;28;80213;-58
2023/07/13 12:17:06;;;;;;;4.32;2.50;;;25.90;80.80;;;;;;6190000;28;81652;-57
2023/07/13 12:20:08;;;;;;;6.90;2.67;;;26.00;79.30;;;;;;6178496;28;80702;-58
2023/07/13 12:23:09;;;;;;;4.60;2.60;;;26.00;79.10;;;;;;6201304;27;80703;-59
2023/07/13 12:26:11;;;;;;;5.68;2.63;;;26.10;78.80;;;;;;6187223;28;81659;-60
2023/07/13 12:29:11;;;;;;;7.93;2.33;;;26.10;79.20;;;;;;6187676;28;82765;-58
2023/07/13 12:32:12;;;;;;;5.18;2.30;;;26.20;78.60;;;;;;6200932;28;80916;-57
2023/07/13 12:35:13;;;;;;;5.07;2.33;;;26.20;79.20;;;;;;6214078;28;80999;-57
2023/07/13 12:38:14;;;;;;;4.22;2.30;;;26.20;79.60;;;;;;6224840;27;80085;-58
2023/07/13 12:41:14;;;;;;;4.07;1.85;;;26.30;78.50;;;;;;6200197;28;80493;-59
2023/07/13 12:44:15;;;;;;;7.15;2.63;;;26.20;78.70;;;;;;6202831;28;82700;-58
2023/07/13 12:47:15;;;;;;;6.45;2.20;;;26.20;78.70;;;;;;6207729;28;80780;-58
2023/07/13 12:50:16;;;;;;;3.85;2.40;;;26.30;78.30;;;;;;6192664;28;81426;-58
2023/07/13 12:53:17;;;;;;;3.10;2.05;;;26.40;77.20;;;;;;6207657;28;81741;-60
2023/07/13 12:56:18;;;;;;;4.80;2.08;;;26.40;76.50;;;;;;6220321;27;80521;-59
2023/07/13 12:59:19;;;;;;;2.90;2.00;;;26.40;76.60;;;;;;6216810;28;80162;-61
2023/07/13 13:02:22;;;;;;;9.82;2.60;;;26.40;76.40;;;;;;6217390;27;81127;-60
2023/07/13 13:05:25;;;;;;;7.25;2.30;;;26.50;75.00;;;;;;6217576;28;80638;-61
2023/07/13 13:08:26;;;;;;;4.22;2.20;;;26.50;75.50;;;;;;6221128;27;80577;-59
2023/07/13 13:11:27;;;;;;;3.28;1.90;;;26.50;74.50;;;;;;6220983;27;81839;-59
2023/07/13 13:14:27;;;;;;;4.63;2.30;;;26.50;74.60;;;;;;6217523;27;80289;-58
2023/07/13 13:17:28;;;;;;;3.47;2.13;;;26.50;74.30;;;;;;6197589;28;80962;-59
2023/07/13 13:20:28;;;;;;;4.07;2.22;;;26.50;74.20;;;;;;6193342;28;80845;-59
2023/07/13 13:23:29;;;;;;;7.15;2.60;;;26.50;73.60;;;;;;6205247;28;80424;-59
2023/07/13 13:26:30;;;;;;;2.95;2.03;;;26.50;73.60;;;;;;6189063;28;80131;-60
2023/07/13 13:29:31;;;;;;;5.10;2.47;;;26.50;73.50;;;;;;6201495;28;80972;-59
2023/07/13 13:32:31;;;;;;;20.05;2.90;;;26.50;73.50;;;;;;6200888;28;80927;-61
2023/07/13 13:35:32;;;;;;;4.95;2.72;;;26.30;72.50;;;;;;6213463;28;81189;-60
2023/07/13 13:38:33;;;;;;;3.55;1.98;;;25.70;73.90;;;;;;6225435;28;80767;-59
2023/07/13 13:41:33;;;;;;;3.40;2.30;;;25.70;74.80;;;;;;6214395;27;80441;-59
2023/07/13 13:44:34;;;;;;;3.38;2.13;;;25.50;75.40;;;;;;6196920;28;80644;-59
2023/07/13 13:47:35;;;;;;;2.92;1.70;;;25.40;76.20;;;;;;6196917;27;80577;-59
2023/07/13 13:50:36;;;;;;;3.03;1.98;;;25.10;77.10;;;;;;6192903;27;81130;-59
2023/07/13 13:53:36;;;;;;;3.72;2.00;;;25.20;77.40;;;;;;6188392;27;86347;-61
2023/07/13 13:56:38;;;;;;;5.55;2.10;;;25.10;78.00;;;;;;6197075;27;80903;-60
2023/07/13 13:59:40;;;;;;;3.45;1.92;;;25.00;77.80;;;;;;6192938;28;80670;-62
2023/07/13 14:02:40;;;;;;;3.40;2.17;;;25.10;77.50;;;;;;6184817;27;79992;-58
2023/07/13 14:05:41;;;;;;;3.40;1.70;;;25.20;77.60;;;;;;6201760;27;80998;-65
2023/07/13 14:08:41;;;;;;;5.55;2.00;;;25.10;77.40;;;;;;6196639;27;80334;-60
2023/07/13 14:11:42;;;;;;;3.33;1.83;;;25.20;77.70;;;;;;6192583;27;80320;-59
2023/07/13 14:14:42;;;;;;;3.90;1.83;;;25.40;76.80;;;;;;6196835;27;81407;-60
2023/07/13 14:17:43;;;;;;;3.50;1.90;;;25.50;76.40;;;;;;6186738;27;80350;-58
2023/07/13 14:20:44;;;;;;;3.17;1.70;;;25.60;76.30;;;;;;6188368;28;81861;-58
2023/07/13 14:23:45;;;;;;;5.28;2.53;;;25.70;76.30;;;;;;6177723;27;83034;-60
2023/07/13 14:26:45;;;;;;;3.33;2.00;;;25.70;77.60;;;;;;6189600;27;83047;-65
2023/07/13 14:29:46;;;;;;;4.05;2.03;;;25.80;77.30;;;;;;6169610;28;82547;-64
2023/07/13 14:32:47;;;;;;;3.40;1.95;;;25.90;77.10;;;;;;6185775;28;81633;-64
2023/07/13 14:35:47;;;;;;;3.17;1.85;;;26.00;76.80;;;;;;6181321;27;80526;-62
2023/07/13 14:38:48;;;;;;;4.18;2.20;;;26.10;76.00;;;;;;6183238;27;81555;-62
2023/07/13 14:41:50;;;;;;;3.45;2.08;;;26.20;75.50;;;;;;6188713;27;80836;-62
2023/07/13 14:44:51;;;;;;;3.17;2.42;;;26.20;75.00;;;;;;6184872;28;80643;-63
2023/07/13 14:47:52;;;;;;;3.25;2.33;;;26.20;74.60;;;;;;6199307;27;80645;-64
2023/07/13 14:50:52;;;;;;;4.70;1.98;;;26.10;74.20;;;;;;6189233;27;80729;-61
2023/07/13 14:53:53;;;;;;;3.67;1.80;;;26.20;74.30;;;;;;6184587;28;80533;-62
2023/07/13 14:56:53;;;;;;;6.13;2.50;;;26.20;73.80;;;;;;6178043;28;80917;-64
2023/07/13 14:59:54;;;;;;;6.00;2.22;;;26.30;73.50;;;;;;6178301;28;80358;-60
2023/07/13 15:02:55;;;;;;;2.90;2.38;;;26.30;73.10;;;;;;6200111;27;83383;-59
2023/07/13 15:05:55;;;;;;;6.22;2.40;;;26.40;73.00;;;;;;6186069;28;82312;-60
2023/07/13 15:08:55;;;;;;;3.38;2.10;;;26.30;73.00;;;;;;6185691;27;81114;-61
2023/07/13 15:11:56;;;;;;;3.85;2.15;;;26.30;73.30;;;;;;6191633;28;81577;-61
2023/07/13 15:14:57;;;;;;;2.60;2.33;;;26.30;73.30;;;;;;6195747;27;80920;-60
2023/07/13 15:17:57;;;;;;;2.92;2.35;;;26.30;73.20;;;;;;6184287;28;83627;-61
2023/07/13 15:21:00;;;;;;;3.67;2.13;;;26.30;72.80;;;;;;6171851;28;80594;-62
2023/07/13 15:24:02;;;;;;;3.17;2.05;;;26.30;72.80;;;;;;6198142;28;80682;-65
2023/07/13 15:27:02;;;;;;;3.53;2.33;;;26.40;72.30;;;;;;6192604;27;80734;-64
2023/07/13 15:30:03;;;;;;;5.30;2.35;;;26.40;72.10;;;;;;6204541;27;81706;-63
2023/07/13 15:33:05;;;;;;;4.55;2.55;;;26.40;71.80;;;;;;6206294;28;80524;-62
2023/07/13 15:36:06;;;;;;;3.60;2.60;;;26.30;71.70;;;;;;6222609;28;81355;-62
2023/07/13 15:39:06;;;;;;;4.30;2.78;;;26.30;71.50;;;;;;6230632;27;80580;-64